createdAt,value
2023-05-05T00:01:55.398Z,58.59
2023-05-05T00:04:24.215Z,58.55
2023-05-05T00:06:51.664Z,58.49
2023-05-05T00:09:20.024Z,58.59
2023-05-05T00:11:47.342Z,58.65
2023-05-05T00:14:14.619Z,58.66
2023-05-05T00:16:42.487Z,58.47
2023-05-05T00:19:10.196Z,58.38
2023-05-05T00:21:38.631Z,58.51
2023-05-05T00:24:05.940Z,58.57
2023-05-05T00:26:33.288Z,58.38
2023-05-05T00:29:00.679Z,58.44
2023-05-05T00:31:28.259Z,58.54
2023-05-05T00:33:55.686Z,58.48
2023-05-05T00:36:23.008Z,58.54
2023-05-05T00:38:50.256Z,58.58
2023-05-05T00:41:17.584Z,58.59
2023-05-05T00:43:44.960Z,58.52
2023-05-05T00:46:40.527Z,58.51
2023-05-05T00:49:08.364Z,58.56
2023-05-05T00:51:35.760Z,58.57
2023-05-05T00:54:03.151Z,58.40
2023-05-05T00:56:31.037Z,58.35
2023-05-05T00:58:59.227Z,58.40
2023-05-05T01:01:26.546Z,58.33
2023-05-05T01:03:53.999Z,58.33
2023-05-05T01:06:45.384Z,58.38
2023-05-05T01:09:38.961Z,58.38
2023-05-05T01:12:15.257Z,58.39
2023-05-05T01:14:58.805Z,58.32
2023-05-05T01:17:36.427Z,58.35
2023-05-05T01:20:22.714Z,58.36
2023-05-05T01:23:05.867Z,58.32
2023-05-05T01:25:54.422Z,58.26
2023-05-05T01:28:36.868Z,58.15
2023-05-05T01:31:28.918Z,58.13
2023-05-05T01:34:01.758Z,58.13
2023-05-05T01:36:36.508Z,58.13
2023-05-05T01:39:06.759Z,58.12
2023-05-05T01:41:41.143Z,58.11
2023-05-05T01:44:11.024Z,58.11
2023-05-05T01:46:38.390Z,58.14
2023-05-05T01:49:10.063Z,58.11
2023-05-05T01:51:39.227Z,58.11
2023-05-05T01:54:08.438Z,58.10
2023-05-05T01:56:39.151Z,58.15
2023-05-05T01:59:07.875Z,58.00
2023-05-05T02:01:38.749Z,57.93
2023-05-05T02:04:09.912Z,57.96
2023-05-05T02:06:39.451Z,57.99
2023-05-05T02:09:13.729Z,57.87
2023-05-05T02:11:41.496Z,58.07
2023-05-05T02:14:10.242Z,57.97
2023-05-05T02:16:41.323Z,58.04
2023-05-05T02:19:08.911Z,57.75
2023-05-05T02:21:36.448Z,57.79
2023-05-05T02:24:04.007Z,57.75
2023-05-05T02:26:35.885Z,57.76
2023-05-05T02:29:12.259Z,57.83
2023-05-05T02:31:45.090Z,57.68
2023-05-05T02:34:16.454Z,57.67
2023-05-05T02:36:45.347Z,57.78
2023-05-05T02:39:20.527Z,57.64
2023-05-05T02:41:51.206Z,57.67
2023-05-05T02:44:27.652Z,57.52
2023-05-05T02:46:56.090Z,57.53
2023-05-05T02:49:25.621Z,57.76
2023-05-05T02:51:58.145Z,57.47
2023-05-05T02:54:28.596Z,57.49
2023-05-05T02:56:57.938Z,57.51
2023-05-05T02:59:50.264Z,57.59
2023-05-05T03:02:29.751Z,57.38
2023-05-05T03:05:04.626Z,57.42
2023-05-05T03:07:42.754Z,57.56
2023-05-05T03:10:16.663Z,57.39
2023-05-05T03:12:56.756Z,57.35
2023-05-05T03:15:52.396Z,57.43
2023-05-05T03:18:25.224Z,57.52
2023-05-05T03:21:07.927Z,57.43
2023-05-05T03:23:37.915Z,57.32
2023-05-05T03:26:09.800Z,57.47
2023-05-05T03:28:41.802Z,57.37
2023-05-05T03:31:18.761Z,57.32
2023-05-05T03:33:50.897Z,57.48
2023-05-05T03:36:21.249Z,57.36
2023-05-05T03:38:48.551Z,57.38
2023-05-05T03:41:17.238Z,57.21
2023-05-05T03:43:44.590Z,57.44
2023-05-05T03:46:12.040Z,57.15
2023-05-05T03:48:41.840Z,57.34
2023-05-05T03:51:09.526Z,57.29
2023-05-05T03:53:36.929Z,57.37
2023-05-05T03:56:07.268Z,57.25
2023-05-05T03:58:34.871Z,57.36
2023-05-05T04:01:02.225Z,57.14
2023-05-05T04:03:29.657Z,57.23
2023-05-05T04:05:57.370Z,57.17
2023-05-05T04:08:25.125Z,57.13
2023-05-05T04:10:52.623Z,57.01
2023-05-05T04:13:20.945Z,57.09
2023-05-05T04:15:49.269Z,57.01
2023-05-05T04:18:18.427Z,57.09
2023-05-05T04:20:46.880Z,57.11
2023-05-05T04:23:14.589Z,57.16
2023-05-05T04:25:42.620Z,57.15
2023-05-05T04:28:11.232Z,57.15
2023-05-05T04:30:38.946Z,57.19
2023-05-05T04:33:06.272Z,57.16
2023-05-05T04:35:34.041Z,57.21
2023-05-05T04:38:01.348Z,57.10
2023-05-05T04:40:29.351Z,56.99
2023-05-05T04:42:58.560Z,57.04
2023-05-05T04:45:26.034Z,57.15
2023-05-05T04:47:53.685Z,57.02
2023-05-05T04:50:21.997Z,57.06
2023-05-05T04:52:50.298Z,57.20
2023-05-05T04:55:19.944Z,57.11
2023-05-05T04:57:47.239Z,57.07
2023-05-05T05:00:14.780Z,57.29
2023-05-05T05:02:42.030Z,57.04
2023-05-05T05:05:10.225Z,56.90
2023-05-05T05:07:37.821Z,56.98
2023-05-05T05:10:06.140Z,57.24
2023-05-05T05:12:33.617Z,57.08
2023-05-05T05:15:00.949Z,56.98
2023-05-05T05:17:30.067Z,56.99
2023-05-05T05:20:01.319Z,57.04
2023-05-05T05:22:31.087Z,57.09
2023-05-05T05:24:59.112Z,57.16
2023-05-05T05:27:26.402Z,57.06
2023-05-05T05:29:55.096Z,56.99
2023-05-05T05:32:22.425Z,57.04
2023-05-05T05:34:50.085Z,57.02
2023-05-05T05:37:17.756Z,57.08
2023-05-05T05:39:51.485Z,56.92
2023-05-05T05:42:19.868Z,56.98
2023-05-05T05:44:47.103Z,57.12
2023-05-05T05:47:14.546Z,57.13
2023-05-05T05:49:42.135Z,57.12
2023-05-05T05:52:09.555Z,57.10
2023-05-05T05:54:37.228Z,57.28
2023-05-05T05:57:04.791Z,57.30
2023-05-05T05:59:32.275Z,57.40
2023-05-05T06:01:59.723Z,57.29
2023-05-05T06:04:27.063Z,57.41
2023-05-05T06:06:56.179Z,57.31
2023-05-05T06:09:23.535Z,57.38
2023-05-05T06:11:51.497Z,57.45
2023-05-05T06:14:20.016Z,57.43
2023-05-05T06:16:47.705Z,57.40
2023-05-05T06:19:21.526Z,57.42
2023-05-05T06:21:49.344Z,57.45
2023-05-05T06:24:16.713Z,57.46
2023-05-05T06:26:44.115Z,57.60
2023-05-05T06:29:12.406Z,57.61
2023-05-05T06:31:39.801Z,57.69
2023-05-05T06:34:07.189Z,58.00
2023-05-05T06:36:34.571Z,57.89
2023-05-05T06:39:01.844Z,58.07
2023-05-05T06:41:29.126Z,57.89
2023-05-05T06:43:56.316Z,57.95
2023-05-05T06:46:23.561Z,57.85
2023-05-05T06:48:50.843Z,57.91
2023-05-05T06:51:18.168Z,58.15
2023-05-05T06:53:45.404Z,58.04
2023-05-05T06:56:12.671Z,57.95
2023-05-05T06:58:39.996Z,58.27
2023-05-05T07:01:07.755Z,58.35
2023-05-05T07:03:35.114Z,58.45
2023-05-05T07:06:02.368Z,58.39
2023-05-05T07:08:29.637Z,58.45
2023-05-05T07:10:56.925Z,58.52
2023-05-05T07:13:24.211Z,58.34
2023-05-05T07:15:51.535Z,58.13
2023-05-05T07:18:20.445Z,58.31
2023-05-05T07:20:47.958Z,58.42
2023-05-05T07:23:15.264Z,58.18
2023-05-05T07:25:42.594Z,58.48
2023-05-05T07:28:10.812Z,58.72
2023-05-05T07:30:38.123Z,58.90
2023-05-05T07:33:05.529Z,58.69
2023-05-05T07:35:32.771Z,58.66
2023-05-05T07:38:00.063Z,58.49
2023-05-05T07:40:27.535Z,58.55
2023-05-05T07:42:54.817Z,58.45
2023-05-05T07:45:22.078Z,58.46
2023-05-05T07:47:49.370Z,58.39
2023-05-05T07:50:17.074Z,58.77
2023-05-05T07:52:50.078Z,58.70
2023-05-05T07:55:23.536Z,58.44
2023-05-05T07:57:50.875Z,58.50
2023-05-05T08:00:19.511Z,58.33
2023-05-05T08:02:47.939Z,58.36
2023-05-05T08:05:15.463Z,58.34
2023-05-05T08:07:42.794Z,58.25
2023-05-05T08:10:11.392Z,58.32
2023-05-05T08:12:39.506Z,58.30
2023-05-05T08:15:07.664Z,58.47
2023-05-05T08:17:46.827Z,58.38
2023-05-05T08:20:14.839Z,58.46
2023-05-05T08:22:42.995Z,58.56
2023-05-05T08:25:13.279Z,58.34
2023-05-05T08:27:42.059Z,58.51
2023-05-05T08:30:10.460Z,58.25
2023-05-05T08:32:38.594Z,58.33
2023-05-05T08:35:07.249Z,58.01
2023-05-05T08:37:35.082Z,57.50
2023-05-05T08:40:02.371Z,57.48
2023-05-05T08:42:38.142Z,57.45
2023-05-05T08:45:08.340Z,56.94
2023-05-05T08:47:37.033Z,57.01
2023-05-05T08:50:06.052Z,56.99
2023-05-05T08:52:40.722Z,57.11
2023-05-05T08:55:35.474Z,57.20
2023-05-05T08:58:05.813Z,57.20
2023-05-05T09:00:33.762Z,57.51
2023-05-05T09:03:02.130Z,56.84
2023-05-05T09:05:29.457Z,56.31
2023-05-05T09:07:56.840Z,55.80
2023-05-05T09:10:25.833Z,55.28
2023-05-05T09:12:53.589Z,55.12
2023-05-05T09:15:21.085Z,55.46
2023-05-05T09:17:48.706Z,55.68
2023-05-05T09:20:16.217Z,55.50
2023-05-05T09:22:47.896Z,55.64
2023-05-05T09:25:17.147Z,55.45
2023-05-05T09:27:46.437Z,55.69
2023-05-05T09:30:23.225Z,55.29
2023-05-05T09:32:52.839Z,55.56
2023-05-05T09:35:21.499Z,55.37
2023-05-05T09:37:48.835Z,55.66
2023-05-05T09:40:18.037Z,55.65
2023-05-05T09:42:45.757Z,55.79
2023-05-05T09:45:19.251Z,56.01
2023-05-05T09:47:47.682Z,55.88
2023-05-05T09:50:18.671Z,55.95
2023-05-05T09:53:01.036Z,55.95
2023-05-05T09:55:29.264Z,55.97
2023-05-05T09:57:56.957Z,55.88
2023-05-05T10:00:38.559Z,55.99
2023-05-05T10:03:05.870Z,55.67
2023-05-05T10:05:33.449Z,55.99
2023-05-05T10:08:13.508Z,55.94
2023-05-05T10:10:49.853Z,55.85
2023-05-05T10:13:20.654Z,55.82
2023-05-05T10:15:51.443Z,56.06
2023-05-05T10:18:27.105Z,55.95
2023-05-05T10:21:03.283Z,56.06
2023-05-05T10:23:47.355Z,56.16
2023-05-05T10:26:15.550Z,56.05
2023-05-05T10:28:51.035Z,56.03
2023-05-05T10:31:26.256Z,56.02
2023-05-05T10:33:59.546Z,56.08
2023-05-05T10:36:28.331Z,55.94
2023-05-05T10:38:59.626Z,55.97
2023-05-05T10:41:27.233Z,55.95
2023-05-05T10:43:59.352Z,55.96
2023-05-05T10:46:28.846Z,55.98
2023-05-05T10:49:01.787Z,55.43
2023-05-05T10:51:41.016Z,55.55
2023-05-05T10:54:11.000Z,55.70
2023-05-05T10:56:41.222Z,55.41
2023-05-05T10:59:38.250Z,54.45
2023-05-05T11:02:21.419Z,52.48
2023-05-05T11:05:07.416Z,51.96
2023-05-05T11:07:35.133Z,53.19
2023-05-05T11:10:04.939Z,51.13
2023-05-05T11:12:34.635Z,50.60
2023-05-05T11:15:28.062Z,50.05
2023-05-05T11:17:57.187Z,50.17
2023-05-05T11:20:36.956Z,50.76
2023-05-05T11:23:04.400Z,50.88
2023-05-05T11:25:43.310Z,51.63
2023-05-05T11:28:12.752Z,51.72
2023-05-05T11:30:55.369Z,52.37
2023-05-05T11:33:30.646Z,52.58
2023-05-05T11:36:05.068Z,52.82
2023-05-05T11:38:36.509Z,53.28
2023-05-05T11:41:18.900Z,53.43
2023-05-05T11:43:46.268Z,53.35
2023-05-05T11:46:17.039Z,53.64
2023-05-05T11:48:48.561Z,53.91
2023-05-05T11:51:16.971Z,54.04
2023-05-05T11:53:46.079Z,53.98
2023-05-05T11:56:19.087Z,54.45
2023-05-05T11:58:47.127Z,54.58
2023-05-05T12:01:14.776Z,54.58
2023-05-05T12:03:43.551Z,54.54
2023-05-05T12:06:11.113Z,54.54
2023-05-05T12:08:39.660Z,54.49
2023-05-05T12:11:08.393Z,54.68
2023-05-05T12:13:35.787Z,54.52
2023-05-05T12:16:14.282Z,54.95
2023-05-05T12:18:42.501Z,54.70
2023-05-05T12:21:27.903Z,54.81
2023-05-05T12:23:55.206Z,55.01
2023-05-05T12:26:30.717Z,54.98
2023-05-05T12:28:59.610Z,54.86
2023-05-05T12:31:36.893Z,54.89
2023-05-05T12:34:05.390Z,54.96
2023-05-05T12:36:34.028Z,55.02
2023-05-05T12:39:01.735Z,55.09
2023-05-05T12:41:29.034Z,54.99
2023-05-05T12:43:57.496Z,55.25
2023-05-05T12:46:25.792Z,55.14
2023-05-05T12:49:04.965Z,55.19
2023-05-05T12:51:33.732Z,55.34
2023-05-05T12:54:11.584Z,55.16
2023-05-05T12:56:44.174Z,55.49
2023-05-05T12:59:32.548Z,55.20
2023-05-05T13:02:01.563Z,55.14
2023-05-05T13:04:29.223Z,55.23
2023-05-05T13:07:10.688Z,55.19
2023-05-05T13:09:38.481Z,54.96
2023-05-05T13:12:08.249Z,54.99
2023-05-05T13:14:36.511Z,54.98
2023-05-05T13:17:03.978Z,55.00
2023-05-05T13:19:32.496Z,55.05
2023-05-05T13:21:59.892Z,54.85
2023-05-05T13:24:38.588Z,54.95
2023-05-05T13:27:09.971Z,54.81
2023-05-05T13:29:37.355Z,54.88
2023-05-05T13:32:04.929Z,54.92
2023-05-05T13:34:32.283Z,54.83
2023-05-05T13:36:59.617Z,54.91
2023-05-05T13:39:26.852Z,54.80
2023-05-05T13:41:54.124Z,54.85
2023-05-05T13:44:21.981Z,54.84
2023-05-05T13:46:49.332Z,54.77
2023-05-05T13:49:16.985Z,54.64
2023-05-05T13:51:45.156Z,54.81
2023-05-05T13:54:12.573Z,54.71
2023-05-05T13:56:39.954Z,54.83
2023-05-05T13:59:07.339Z,54.59
2023-05-05T14:01:34.886Z,54.77
2023-05-05T14:04:05.115Z,54.90
2023-05-05T14:06:33.681Z,54.79
2023-05-05T14:09:01.476Z,54.96
2023-05-05T14:11:28.737Z,55.02
2023-05-05T14:13:56.064Z,54.94
2023-05-05T14:16:23.307Z,54.92
2023-05-05T14:18:50.624Z,54.96
2023-05-05T14:21:17.888Z,54.98
2023-05-05T14:23:45.163Z,55.05
2023-05-05T14:26:12.517Z,55.13
2023-05-05T14:28:39.741Z,55.15
2023-05-05T14:31:07.007Z,55.17
2023-05-05T14:33:34.399Z,55.32
2023-05-05T14:36:01.685Z,55.34
2023-05-05T14:38:28.974Z,55.44
2023-05-05T14:40:56.223Z,55.82
2023-05-05T14:43:23.588Z,55.40
2023-05-05T14:45:52.348Z,55.40
2023-05-05T14:48:22.384Z,55.21
2023-05-05T14:50:49.955Z,55.48
2023-05-05T14:53:19.037Z,55.35
2023-05-05T14:55:46.327Z,55.57
2023-05-05T14:58:13.565Z,55.54
2023-05-05T15:00:40.808Z,55.67
2023-05-05T15:03:08.255Z,55.64
2023-05-05T15:05:35.622Z,55.36
2023-05-05T15:08:02.840Z,55.43
2023-05-05T15:10:30.105Z,55.64
2023-05-05T15:12:57.456Z,55.56
2023-05-05T15:15:24.719Z,55.63
2023-05-05T15:17:52.458Z,55.85
2023-05-05T15:20:19.757Z,55.63
2023-05-05T15:22:49.006Z,55.68
2023-05-05T15:25:18.783Z,55.64
2023-05-05T15:27:46.417Z,56.00
2023-05-05T15:30:14.171Z,55.65
2023-05-05T15:32:41.996Z,55.70
2023-05-05T15:35:09.811Z,55.68
2023-05-05T15:37:37.917Z,55.70
2023-05-05T15:40:08.406Z,55.58
2023-05-05T15:42:35.787Z,55.53
2023-05-05T15:45:04.013Z,55.65
2023-05-05T15:47:31.328Z,55.67
2023-05-05T15:49:58.669Z,55.69
2023-05-05T15:52:25.923Z,55.69
2023-05-05T15:54:53.202Z,55.44
2023-05-05T15:57:20.600Z,55.57
2023-05-05T15:59:52.264Z,55.62
2023-05-05T16:02:21.033Z,55.66
2023-05-05T16:04:48.282Z,55.62
2023-05-05T16:07:15.820Z,55.72
2023-05-05T16:09:44.317Z,55.79
2023-05-05T16:12:11.700Z,55.64
2023-05-05T16:14:38.970Z,55.57
2023-05-05T16:17:07.520Z,55.64
2023-05-05T16:19:34.930Z,55.90
2023-05-05T16:22:02.745Z,55.64
2023-05-05T16:24:30.069Z,55.64
2023-05-05T16:26:57.282Z,55.75
2023-05-05T16:29:24.507Z,55.55
2023-05-05T16:31:51.819Z,55.73
2023-05-05T16:34:19.136Z,55.72
2023-05-05T16:36:46.509Z,55.58
2023-05-05T16:39:13.846Z,55.58
2023-05-05T16:41:41.393Z,55.43
2023-05-05T16:44:08.705Z,55.35
2023-05-05T16:46:37.725Z,55.15
2023-05-05T16:49:05.167Z,55.16
2023-05-05T16:51:32.399Z,55.19
2023-05-05T16:53:59.706Z,55.19
2023-05-05T16:56:27.043Z,55.10
2023-05-05T16:58:54.382Z,55.10
2023-05-05T17:03:48.614Z,54.98
2023-05-05T17:06:15.847Z,54.61
2023-05-05T17:08:43.139Z,54.14
2023-05-05T17:11:11.858Z,52.99
2023-05-05T17:13:39.424Z,52.66
2023-05-05T17:16:07.265Z,53.97
2023-05-05T17:18:34.603Z,53.19
2023-05-05T17:21:01.872Z,52.66
2023-05-05T17:23:29.094Z,53.12
2023-05-05T17:25:58.751Z,52.33
2023-05-05T17:28:28.646Z,52.14
2023-05-05T17:30:59.547Z,52.49
2023-05-05T17:33:27.231Z,51.72
2023-05-05T17:35:54.792Z,51.74
2023-05-05T17:38:24.839Z,51.95
2023-05-05T17:40:52.093Z,51.57
2023-05-05T17:43:21.910Z,51.13
2023-05-05T17:45:50.794Z,51.76
2023-05-05T17:48:18.338Z,51.58
2023-05-05T17:50:48.070Z,51.73
2023-05-05T17:53:16.083Z,51.08
2023-05-05T17:55:47.173Z,51.17
2023-05-05T17:58:14.373Z,50.58
2023-05-05T18:00:41.653Z,51.64
2023-05-05T18:03:09.063Z,52.45
2023-05-05T18:05:36.403Z,52.02
2023-05-05T18:08:03.824Z,52.79
2023-05-05T18:10:31.444Z,52.75
2023-05-05T18:12:58.741Z,52.75
2023-05-05T18:15:26.497Z,52.98
2023-05-05T18:17:53.920Z,53.25
2023-05-05T18:20:21.417Z,53.29
2023-05-05T18:22:49.011Z,53.45
2023-05-05T18:25:16.636Z,53.72
2023-05-05T18:27:44.431Z,53.82
2023-05-05T18:30:12.068Z,53.89
2023-05-05T18:32:39.398Z,54.01
2023-05-05T18:35:07.416Z,54.25
2023-05-05T18:37:34.951Z,54.26
2023-05-05T18:40:02.310Z,54.22
2023-05-05T18:42:29.641Z,54.42
2023-05-05T18:44:56.909Z,54.62
2023-05-05T18:47:24.208Z,54.74
2023-05-05T18:49:51.702Z,54.89
2023-05-05T18:52:18.900Z,54.79
2023-05-05T18:54:46.205Z,54.73
2023-05-05T18:57:13.440Z,54.98
2023-05-05T18:59:40.741Z,55.00
2023-05-05T19:02:07.929Z,55.36
2023-05-05T19:04:38.183Z,55.31
2023-05-05T19:07:06.038Z,55.31
2023-05-05T19:09:33.466Z,55.54
2023-05-05T19:12:04.573Z,55.59
2023-05-05T19:14:31.952Z,55.39
2023-05-05T19:16:59.596Z,55.69
2023-05-05T19:19:27.130Z,55.83
2023-05-05T19:21:54.786Z,56.18
2023-05-05T19:24:22.152Z,56.42
2023-05-05T19:26:49.396Z,56.59
2023-05-05T19:29:17.694Z,56.26
2023-05-05T19:31:44.948Z,56.29
2023-05-05T19:34:12.232Z,56.30
2023-05-05T19:36:39.582Z,56.83
2023-05-05T19:39:06.894Z,56.83
2023-05-05T19:41:35.469Z,56.72
2023-05-05T19:44:03.087Z,56.88
2023-05-05T19:46:30.599Z,56.82
2023-05-05T19:48:57.940Z,56.59
2023-05-05T19:51:25.342Z,56.40
2023-05-05T19:53:52.646Z,56.57
2023-05-05T19:56:19.927Z,56.67
2023-05-05T19:58:53.794Z,56.54
2023-05-05T20:01:21.454Z,56.64
2023-05-05T20:03:49.045Z,56.45
2023-05-05T20:06:16.542Z,56.50
2023-05-05T20:08:43.789Z,56.42
2023-05-05T20:11:11.094Z,56.70
2023-05-05T20:13:40.953Z,56.57
2023-05-05T20:16:08.342Z,56.44
2023-05-05T20:18:35.688Z,56.55
2023-05-05T20:21:03.624Z,56.55
2023-05-05T20:23:31.069Z,56.58
2023-05-05T20:25:58.386Z,56.61
2023-05-05T20:28:25.639Z,56.54
2023-05-05T20:30:52.860Z,56.65
2023-05-05T20:33:20.134Z,56.54
2023-05-05T20:35:47.400Z,56.69
2023-05-05T20:38:14.755Z,56.74
2023-05-05T20:40:42.125Z,56.79
2023-05-05T20:43:09.373Z,56.72
2023-05-05T20:45:37.232Z,56.66
2023-05-05T20:48:07.250Z,56.75
2023-05-05T20:50:37.452Z,56.67
2023-05-05T20:53:07.108Z,56.70
2023-05-05T20:55:34.377Z,56.78
2023-05-05T20:58:01.706Z,56.81
2023-05-05T21:00:28.975Z,56.60
2023-05-05T21:02:57.173Z,56.68
2023-05-05T21:05:24.625Z,56.48
2023-05-05T21:07:53.932Z,56.69
2023-05-05T21:10:21.332Z,56.88
2023-05-05T21:12:48.766Z,57.08
2023-05-05T21:15:16.856Z,57.21
2023-05-05T21:17:44.456Z,56.97
2023-05-05T21:20:12.520Z,57.10
2023-05-05T21:22:40.117Z,56.89
2023-05-05T21:25:13.066Z,56.84
2023-05-05T21:27:40.591Z,57.07
2023-05-05T21:30:10.828Z,57.17
2023-05-05T21:32:39.556Z,57.29
2023-05-05T21:35:08.727Z,57.30
2023-05-05T21:37:39.919Z,57.24
2023-05-05T21:40:13.943Z,57.27
2023-05-05T21:42:42.568Z,57.39
2023-05-05T21:45:12.926Z,57.36
2023-05-05T21:47:40.249Z,57.33
2023-05-05T21:50:08.339Z,57.30
2023-05-05T21:52:35.946Z,57.30
2023-05-05T21:55:03.791Z,57.31
2023-05-05T21:57:31.053Z,57.29
2023-05-05T21:59:58.305Z,57.24
2023-05-05T22:02:25.592Z,57.20
2023-05-05T22:04:53.128Z,57.26
2023-05-05T22:07:20.492Z,57.25
2023-05-05T22:09:47.889Z,57.30
2023-05-05T22:12:15.125Z,57.27
2023-05-05T22:14:42.442Z,57.12
2023-05-05T22:17:09.841Z,57.17
2023-05-05T22:19:37.071Z,57.19
2023-05-05T22:22:05.662Z,57.17
2023-05-05T22:24:32.921Z,57.14
2023-05-05T22:27:00.322Z,57.34
2023-05-05T22:29:27.624Z,57.25
2023-05-05T22:31:54.999Z,57.16
2023-05-05T22:34:22.197Z,57.17
2023-05-05T22:36:49.898Z,57.06
2023-05-05T22:39:18.595Z,57.19
2023-05-05T22:41:46.624Z,57.12
2023-05-05T22:44:14.006Z,57.05
2023-05-05T22:46:42.148Z,57.09
2023-05-05T22:49:09.548Z,57.12
2023-05-05T22:51:36.789Z,57.04
2023-05-05T22:54:04.333Z,57.12
2023-05-05T22:56:31.556Z,57.11
2023-05-05T22:58:58.761Z,57.13
2023-05-05T23:01:26.242Z,57.09
2023-05-05T23:03:53.737Z,57.13
2023-05-05T23:06:21.028Z,57.15
2023-05-05T23:08:49.275Z,57.09
2023-05-05T23:11:16.569Z,57.09
2023-05-05T23:13:43.874Z,57.10
2023-05-05T23:16:11.213Z,57.02
2023-05-05T23:18:38.833Z,57.06
2023-05-05T23:21:06.095Z,57.13
2023-05-05T23:23:33.330Z,57.15
2023-05-05T23:26:00.851Z,56.95
2023-05-05T23:28:28.111Z,57.05
2023-05-05T23:30:55.607Z,57.06
2023-05-05T23:33:22.871Z,57.07
2023-05-05T23:35:50.305Z,57.14
2023-05-05T23:38:17.590Z,57.06
2023-05-05T23:40:44.864Z,57.08
2023-05-05T23:43:12.118Z,57.06
2023-05-05T23:45:39.379Z,57.11
2023-05-05T23:48:06.791Z,57.11
2023-05-05T23:50:34.122Z,57.16
2023-05-05T23:53:01.473Z,57.18
2023-05-05T23:57:55.736Z,57.09
